Subpeak Weather

  • Time Avg. Air Temp Dew Point Avg. Rel Humidity Avg. 2 Min Wind Speed Max Gust Velocity MGV Time MGV Direction Avg. Spot Wind Velocity
    2019-12-05 09:25:00-10° C-12° C88%13 km/h14 km/h09:22:00SW13 km/h
    08:25:00-12° C-14° C87%9 km/h11 km/h08:23:00SW10 km/h
    07:25:00-12° C-14° C86%10 km/h12 km/h07:22:00S11 km/h
    06:25:00-12° C-13° C87%12 km/h13 km/h06:25:00S12 km/h
    05:25:00-12° C-14° C86%11 km/h12 km/h05:21:00S11 km/h
    04:25:00-13° C-15° C85%4 km/h5 km/h04:22:00SW4 km/h
    03:25:00-13° C-15° C85%7 km/h8 km/h03:24:00SW7 km/h
    02:25:00-13° C-15° C85%5 km/h6 km/h02:21:00W6 km/h
    01:25:00-13° C-15° C86%7 km/h7 km/h01:24:00NW6 km/h
    00:25:00-12° C-14° C86%6 km/h7 km/h00:21:00W7 km/h
    23:25:00-12° C-14° C87%5 km/h5 km/h23:23:00NW4 km/h
    22:25:00-11° C-13° C88%1 km/h3 km/h22:21:00N2 km/h
    21:25:00-11° C-13° C88%5 km/h5 km/h21:24:00NW5 km/h
    20:25:00-11° C-12° C88%3 km/h4 km/h20:21:00NW3 km/h
    19:25:00-11° C-12° C88%5 km/h6 km/h19:25:00NW5 km/h
    18:25:00-9° C-11° C89%1 km/h4 km/h18:21:00NW2 km/h
    17:25:00-9° C-10° C90%3 km/h4 km/h17:22:00NW3 km/h
    16:25:00-9° C-10° C90%4 km/h6 km/h16:22:00NW4 km/h
    15:25:00-8° C-9° C91%5 km/h6 km/h15:25:00NW4 km/h
    14:25:00-7° C-8° C92%13 km/h15 km/h14:21:00W13 km/h
    13:25:00-5° C-6° C94%13 km/h18 km/h13:22:00W14 km/h
    12:25:00-4° C-5° C95%12 km/h17 km/h12:22:00SW13 km/h
    11:25:00-4° C-5° C95%23 km/h26 km/h11:25:00SW20 km/h
    10:25:00-4° C-5° C95%31 km/h38 km/h10:22:00SW33 km/h
  • Time Avg. Air Temp Dew Point Avg. Rel Humidity Avg. 2 Min Wind Speed Max Gust Velocity MGV Time MGV Direction Avg. Spot Wind Velocity
    2019-12-05 09:25:00-10° C-12° C88%13 km/h14 km/h09:22:00SW13 km/h
    09:20:00-10° C-12° C88%12 km/h13 km/h09:18:00SW12 km/h
    09:15:00-10° C-12° C88%11 km/h13 km/h09:13:00SW12 km/h
    09:10:00-10° C-12° C89%12 km/h13 km/h09:09:00SW12 km/h
    09:05:00-11° C-12° C88%10 km/h13 km/h09:02:00SW11 km/h
    09:00:00-11° C-12° C88%13 km/h15 km/h08:58:00SW13 km/h
    08:55:00-11° C-12° C88%13 km/h15 km/h08:52:00W14 km/h
    08:50:00-11° C-13° C88%13 km/h16 km/h08:46:00W14 km/h
    08:45:00-12° C-13° C87%14 km/h18 km/h08:41:00W14 km/h
    08:40:00-12° C-13° C87%14 km/h16 km/h08:40:00W12 km/h
    08:35:00-12° C-14° C87%8 km/h9 km/h08:33:00SW8 km/h
    08:30:00-12° C-14° C87%8 km/h10 km/h08:29:00SW8 km/h
    08:25:00-12° C-14° C87%9 km/h11 km/h08:23:00SW10 km/h

Explore More

Get Revelstoke news, offers, and events via email.